Tiempo atmosférico en la estación meteorológica de Villayón, Oneta, Asturias (410 m.)



Fecha
DESCASC
Temp. máxima en grados centígrados (hora)
DESCASC
Temp. mínima en grados centígrados (hora)
DESCASC
Temp. media en grados centígrados
DESCASC
Racha de viento máxima en m/sg (hora)
DESCASC
Velocidad máxima media en intervalos de 10 minutos(hora)
DESCASC
Precipitaciones diarias en mm
DESCASC
Precipitaciones de 00:00 a 06:00 en mm
DESCASC
Precipitaciones de 06:00 a 12:00 en mm
DESCASC
Precipitaciones de 12:00 a 18:00 en mm
DESCASC
Precipitaciones de 18:00 a 24:00 en mm
DESCASC
02-08-2020 19.4 (15:00) 14.9 (07:00) 17.1 7.5 (14:20) 4.72 (14:20) 0 0 0 0 0
01-08-2020 17 (16:00) 15.2 (07:00) 16.1 6.11 (18:40) 4.72 (18:40) 0.8 0 0.2 0.4 0.2
31-07-2020 25 (15:10) 15.7 (07:50) 20.3 8.89 (17:10) 6.39 (17:10) 0.2 0 0.2 0 0
30-07-2020 30 (15:20) 15.5 (00:00) 22.8 12.5 (20:20) 7.5 (20:20) 0 0 0 0 0
29-07-2020 20.7 (16:20) 14.7 (00:00) 17.7 11.11 (15:20) 8.89 (15:10) 0 0 0 0 0
28-07-2020 18.1 (00:00) 14.5 (00:00) 16.3 11.11 (21:50) 6.39 (15:10) 0.8 0.2 0.6 0 0
27-07-2020 26.1 (13:30) 16.6 (00:00) 21.4 9.44 (16:20) 6.67 (14:20) 0 0 0 0 0
26-07-2020 22.3 (19:30) 16.5 (00:00) 19.4 6.39 (11:40) 4.17 (13:20) 0 0 0 0 0
25-07-2020 22.7 (16:40) 13.8 (00:00) 18.3 9.17 (14:20) 6.39 (14:20) 0 0 0 0 0
24-07-2020 20.9 (17:10) 14.6 (00:00) 17.8 8.06 (13:50) 5.56 (15:50) 0 0 0 0 0
23-07-2020 20.7 (17:10) 15.9 (00:00) 18.3 7.5 (18:20) 5 (18:20) 0 0 0 0 0
22-07-2020 23.1 (16:20) 15 (00:00) 19.1 6.94 (17:30) 4.72 (17:30) 0 0 0 0 0
21-07-2020 20.4 (13:20) 15.2 (00:00) 17.8 10 (17:40) 6.39 (17:20) 0 0 0 0 0
20-07-2020 19.7 (12:30) 15.7 (00:00) 17.7 7.22 (19:40) 5 (21:40) 0 0 0 0 0
19-07-2020 21.2 (18:20) 15.4 (00:00) 18.3 7.22 (19:20) 5 (19:10) 0.4 0 0.2 0.2 0
18-07-2020 25.1 (15:40) 14.5 (00:00) 19.8 6.94 (03:50) 4.72 (03:50) 0 0 0 0 0
17-07-2020 24.3 (18:10) 14.3 (00:00) 19.3 7.78 (06:40) 4.72 (06:40) 0 0 0 0 0
16-07-2020 21 (16:50) 13.7 (00:00) 17.3 8.61 (19:00) 5.83 (19:10) 0 0 0 0 0
15-07-2020 18.2 (16:20) 14 (00:00) 16.1 7.22 (00:40) 4.72 (00:40) 0.4 0.2 0 0.2 0
14-07-2020 19.6 (15:10) 12.7 (00:00) 16.2 9.44 (15:40) 6.11 (14:00) 0 0 0 0 0
13-07-2020 22 (12:20) 14.8 (00:00) 18.4 10.56 (15:20) 6.67 (16:20) 0 0 0 0 0
12-07-2020 23.2 (14:40) 16.1 (01:00) 19.7 13.06 (04:40) 8.89 (05:00) 0 0 0 0 0
11-07-2020 20 (15:30) 14.3 (03:00) 17.2 13.33 (09:30) 7.78 (16:50) 0 0 0 0 0
10-07-2020 16.5 (14:10) 13.7 (00:00) 15.1 10.28 (20:30) 6.39 (20:10) 1 0 0.8 0 0.2
09-07-2020 21.5 (15:00) 14 (08:00) 17.8 8.89 (17:20) 5.56 (14:30) 0 0 0 0 0
08-07-2020 20 (15:50) 15.5 (07:00) 17.8 10.83 (03:30) 6.67 (17:20) 0 0 0 0 0
07-07-2020 20.7 (16:30) 13.7 (07:30) 17.2 12.5 (06:50) 6.94 (09:40) 0 0 0 0 0

Gráficas

Temp. máximas Temp. mínimas Temp. medias Precipitaciones Rachas de viento máximas Velocidades máximas media en intervalos de 10 minutos

Datos horarios

Fecha y hora oficial Temperatura (ºC) Velocidad del viento (km/h) Dirección del viento Racha (km/h) Dirección de racha Precipitación (mm) Presión (hPa) Tendencia (hPa) Humedad (%)
2020-08-05 23:00:00 17.8 0 Calma 3 Noroeste 0 -- -- 98
2020-08-05 22:00:00 18.5 0 Calma 10 Noroeste 0 -- -- 94
2020-08-05 21:00:00 20.4 7 Noroeste 15 Noroeste 0 -- -- 86
2020-08-05 20:00:00 21.7 12 Noroeste 20 Noroeste 0 -- -- 78
2020-08-05 19:00:00 22.3 14 Noroeste 23 Noroeste 0 -- -- 77
2020-08-05 18:00:00 22.8 15 Noroeste 26 Noroeste 0 -- -- 76
2020-08-05 17:00:00 23.6 18 Noroeste 26 Noroeste 0 -- -- 76
2020-08-05 16:00:00 24 15 Noroeste 23 Noroeste 0 -- -- 77
2020-08-05 15:00:00 23.7 16 Noroeste 26 Noroeste 0 -- -- 76
2020-08-05 14:00:00 23.4 13 Noroeste 22 Noroeste 0 -- -- 77
2020-08-05 13:00:00 23.9 10 Noroeste 19 Noroeste 0 -- -- 71
2020-08-05 12:00:00 22.3 9 Noroeste 14 Noroeste 0 -- -- 72
2020-08-05 11:00:00 22.2 4 Sudeste 12 Sur 0 -- -- 67
2020-08-05 10:00:00 19.4 8 Sudeste 10 Sudeste 0 -- -- 80
2020-08-05 09:00:00 17.9 0 Calma 7 Noroeste 0 -- -- 89
2020-08-05 08:00:00 15.9 3 Oeste 9 Sudoeste 0 -- -- 93
2020-08-05 07:00:00 15.5 4 Sudeste 8 Este 0 -- -- 96
2020-08-05 06:00:00 16 0 Calma 6 Sur 0 -- -- 94
2020-08-05 05:00:00 15.8 5 Sudoeste 9 Sudoeste 0 -- -- 95
2020-08-05 04:00:00 16 5 Sur 10 Sudoeste 0 -- -- 95
2020-08-05 03:00:00 16.4 0 Calma 4 Sudeste 0 -- -- 94
2020-08-05 02:00:00 16.6 0 Calma 6 Sudoeste 0 -- -- 96
2020-08-05 01:00:00 16.6 5 Noroeste 10 Sur 0 -- -- 98
2020-08-05 00:00:00 16.2 3 Sudeste 5 Sudeste 0 -- -- 100
2020-08-04 23:00:00 16.4 2 Sudeste 6 Oeste 0 -- -- 98
2020-08-04 22:00:00 17.4 4 Oeste 13 Oeste 0 -- -- 93
2020-08-04 21:00:00 20.4 5 Oeste 15 Oeste 0 -- -- 82
2020-08-04 20:00:00 21.6 10 Oeste 20 Noroeste 0 -- -- 75
2020-08-04 19:00:00 21.5 14 Este 29 Este 0 -- -- 66
2020-08-04 18:00:00 21.9 16 Este 31 Este 0 -- -- 64
2020-08-04 17:00:00 21.9 16 Este 24 Este 0 -- -- 71
2020-08-04 16:00:00 22.5 8 Este 24 Este 0 -- -- 74
2020-08-04 15:00:00 22.1 13 Nordeste 26 Este 0 -- -- 73
2020-08-04 14:00:00 20.7 14 Noroeste 22 Noroeste 0 -- -- 84
2020-08-04 13:00:00 21.7 4 Oeste 18 Este 0 -- -- 79
2020-08-04 12:00:00 20.4 4 Sur 18 Noroeste 0 -- -- 83
2020-08-04 11:00:00 17.8 5 Norte 12 Noroeste 0 -- -- 90
2020-08-04 10:00:00 17 5 Noroeste 9 Noroeste 0 -- -- 98
2020-08-04 09:00:00 16 2 Norte 8 Noroeste 0 -- -- 100
2020-08-04 08:00:00 15.3 3 Nordeste 7 Noroeste 0 -- -- 100
2020-08-04 07:00:00 15.7 0 Calma 0 Calma 0 -- -- 99
2020-08-04 06:00:00 15.9 0 Calma 5 Noroeste 0 -- -- 98
2020-08-04 05:00:00 15.9 5 Noroeste 8 Noroeste 0 -- -- 98
2020-08-04 04:00:00 16.2 0 Calma 6 Noroeste 0 -- -- 95
2020-08-04 03:00:00 16.4 5 Noroeste 6 Noroeste 0 -- -- 92
2020-08-04 02:00:00 16.3 0 Calma 5 Este 0 -- -- 92
2020-08-04 01:00:00 16.2 3 Sudeste 5 Noroeste 0 -- -- 93
2020-08-04 00:00:00 16.4 3 Sudeste 5 Sur 0 -- -- 92
2020-08-03 23:00:00 16.4 0 Calma 0 Calma 0 -- -- 91
2020-08-03 22:00:00 16.7 0 Calma 10 Noroeste 0 -- -- 89
2020-08-03 21:00:00 16.9 5 Oeste 11 Noroeste 0 -- -- 86
2020-08-03 20:00:00 18 6 Noroeste 21 Noroeste 0 -- -- 82
2020-08-03 19:00:00 19.3 18 Noroeste 27 Noroeste 0 -- -- 78
2020-08-03 18:00:00 20.4 16 Noroeste 24 Noroeste 0 -- -- 73
2020-08-03 17:00:00 20.9 17 Noroeste 24 Noroeste 0 -- -- 68
2020-08-03 16:00:00 21 17 Noroeste 27 Noroeste 0 -- -- 66
2020-08-03 15:00:00 19.9 17 Noroeste 28 Noroeste 0 -- -- 66
2020-08-03 14:00:00 20.8 17 Noroeste 25 Noroeste 0 -- -- 68
2020-08-03 13:00:00 21 10 Noroeste 22 Noroeste 0 -- -- 69
2020-08-03 12:00:00 20.9 3 Norte 19 Sur 0 -- -- 68
2020-08-03 11:00:00 18.8 4 Sur 13 Sudeste 0 -- -- 78
2020-08-03 10:00:00 16.3 9 Sur 14 Sur 0 -- -- 88
2020-08-03 09:00:00 14.3 6 Sudoeste 12 Sur 0 -- -- 97
2020-08-03 08:00:00 14.3 7 Sur 14 Sudoeste 0 -- -- 97
2020-08-03 07:00:00 14.5 7 Sudeste 9 Sudeste 0 -- -- 94
2020-08-03 06:00:00 14.7 2 Este 4 Este 0 -- -- 98
2020-08-03 05:00:00 14.5 2 Sudeste 3 Sudeste 0 -- -- 98
2020-08-03 04:00:00 14.4 2 Sur 5 Este 0 -- -- 98
2020-08-03 03:00:00 14.1 3 Sudeste 5 Este 0 -- -- 98
2020-08-03 02:00:00 14.7 0 Calma 8 Noroeste 0 -- -- 97
2020-08-03 01:00:00 15.3 2 Noroeste 23 Este 0 -- -- 94
2020-08-03 00:00:00 15.5 9 Este 18 Este 0 -- -- 92
2020-08-02 23:00:00 15.5 8 Nordeste 20 Nordeste 0 -- -- 94
2020-08-02 22:00:00 15.5 13 Este 23 Este 0 -- -- 95
2020-08-02 21:00:00 16.1 7 Nordeste 18 Este 0 -- -- 91
2020-08-02 20:00:00 16.6 7 Nordeste 14 Noroeste 0 -- -- 88
2020-08-02 19:00:00 17.3 7 Norte 15 Nordeste 0 -- -- 81
2020-08-02 18:00:00 17.4 14 Noroeste 26 Noroeste 0 -- -- 82
2020-08-02 17:00:00 18 12 Norte 23 Norte 0 -- -- 79
2020-08-02 16:00:00 19.2 9 Norte 22 Nordeste 0 -- -- 78
2020-08-02 15:00:00 19.4 8 Nordeste 27 Norte 0 -- -- 75
2020-08-02 14:00:00 18.3 14 Norte 25 Noroeste 0 -- -- 82
2020-08-02 13:00:00 18.4 12 Norte 18 Norte 0 -- -- 84
2020-08-02 12:00:00 17.1 9 Norte 17 Este 0 -- -- 89
2020-08-02 11:00:00 16 7 Norte 15 Noroeste 0 -- -- 96
2020-08-02 10:00:00 15.9 7 Noroeste 12 Noroeste 0 -- -- 98
2020-08-02 09:00:00 15.7 3 Noroeste 8 Noroeste 0 -- -- 95
2020-08-02 08:00:00 15.3 0 Calma 10 Este 0 -- -- 93
2020-08-02 07:00:00 14.9 3 Noroeste 6 Nordeste 0 -- -- 96
2020-08-02 06:00:00 15.4 0 Calma 6 Este 0 -- -- 94
2020-08-02 05:00:00 15.3 2 Noroeste 8 Noroeste 0 -- -- 96
2020-08-02 04:00:00 15.4 6 Noroeste 11 Noroeste 0 -- -- 95
2020-08-02 03:00:00 15.6 5 Norte 9 Norte 0 -- -- 92
2020-08-02 02:00:00 15.6 4 Nordeste 10 Nordeste 0 -- -- 92
2020-08-02 01:00:00 15.6 8 Noroeste 17 Norte 0 -- -- 95
2020-08-02 00:00:00 15.5 5 Norte 19 Norte 0.2 -- -- 95
2020-08-01 23:00:00 15.7 2 Norte 12 Noroeste 0 -- -- 96
2020-08-01 22:00:00 16.1 3 Norte 9 Norte 0 -- -- 92
2020-08-01 21:00:00 16.4 0 Calma 11 Norte 0 -- -- 92
2020-08-01 20:00:00 16.4 8 Norte 21 Noroeste 0 -- -- 93
2020-08-01 19:00:00 16.2 15 Noroeste 22 Norte 0 -- -- 100
2020-08-01 18:00:00 17 8 Noroeste 13 Noroeste 0 -- -- 97
2020-08-01 17:00:00 16.7 10 Noroeste 16 Noroeste 0 -- -- 98
2020-08-01 16:00:00 17 6 Noroeste 15 Noroeste 0 -- -- 100
2020-08-01 15:00:00 16.1 11 Noroeste 21 Noroeste 0.2 -- -- 100
2020-08-01 14:00:00 16.1 13 Noroeste 20 Noroeste 0.2 -- -- 100
2020-08-01 13:00:00 16.4 12 Noroeste 16 Noroeste 0 -- -- 100
2020-08-01 12:00:00 16.3 9 Noroeste 17 Noroeste 0 -- -- 100
2020-08-01 11:00:00 16.4 8 Noroeste 11 Noroeste 0 -- -- 100
2020-08-01 10:00:00 15.8 5 Noroeste 7 Noroeste 0 -- -- 100
2020-08-01 09:00:00 15.6 3 Noroeste 8 Noroeste 0 -- -- 100
2020-08-01 08:00:00 15.4 2 Oeste 9 Noroeste 0.2 -- -- 100
2020-08-01 07:00:00 15.2 3 Oeste 9 Noroeste 0 -- -- 100
2020-08-01 06:00:00 15.7 0 Calma 6 Noroeste 0 -- -- 100
2020-08-01 05:00:00 15.7 0 Calma 8 Noroeste 0 -- -- 100
2020-08-01 04:00:00 15.8 5 Noroeste 8 Noroeste 0 -- -- 100
2020-08-01 03:00:00 15.9 4 Noroeste 13 Noroeste 0 -- -- 100
2020-08-01 02:00:00 16.4 4 Norte 6 Nordeste 0 -- -- 100
2020-08-01 01:00:00 16.1 2 Este 7 Noroeste 0 -- -- 100
2020-08-01 00:00:00 16.7 2 Noroeste 6 Sudeste 0 -- -- 98
2020-07-31 23:00:00 17.2 4 Oeste 9 Noroeste 0 -- -- 96
2020-07-31 22:00:00 17.6 8 Noroeste 11 Noroeste 0 -- -- 92
2020-07-31 21:00:00 18.2 6 Noroeste 19 Noroeste 0 -- -- 87
2020-07-31 20:00:00 18.9 8 Noroeste 25 Noroeste 0 -- -- 87
2020-07-31 19:00:00 19.8 18 Noroeste 26 Noroeste 0 -- -- 75
2020-07-31 18:00:00 22.3 15 Noroeste 32 Noroeste 0 -- -- 61
2020-07-31 17:00:00 23.8 21 Noroeste 28 Noroeste 0 -- -- 55
2020-07-31 16:00:00 24.2 16 Noroeste 25 Noroeste 0 -- -- 52
2020-07-31 15:00:00 24.8 16 Noroeste 23 Noroeste 0 -- -- 56
2020-07-31 14:00:00 23.2 9 Noroeste 17 Noroeste 0 -- -- 75
2020-07-31 13:00:00 21.5 8 Noroeste 15 Norte 0 -- -- 83
2020-07-31 12:00:00 19.9 6 Noroeste 16 Noroeste 0 -- -- 92
2020-07-31 11:00:00 18.9 5 Noroeste 18 Noroeste 0 -- -- 96
2020-07-31 10:00:00 19.4 5 Sur 10 Sudeste 0 -- -- 99
2020-07-31 09:00:00 16.6 5 Este 8 Este 0 -- -- 100
2020-07-31 08:00:00 15.9 2 Noroeste 6 Este 0.2 -- -- 100
2020-07-31 07:00:00 16 0 Calma 11 Este 0 -- -- 100
2020-07-31 06:00:00 16.2 3 Sudeste 8 Sudeste 0 -- -- 100
2020-07-31 05:00:00 16.2 4 Sudeste 8 Sudeste 0 -- -- 100
2020-07-31 04:00:00 16.2 4 Noroeste 8 Noroeste 0 -- -- 100
2020-07-31 03:00:00 16.2 6 Sudeste 8 Sudeste 0 -- -- 100
2020-07-31 02:00:00 16.5 5 Noroeste 12 Noroeste 0 -- -- 100
2020-07-31 01:00:00 20 3 Oeste 10 Sudeste 0 -- -- 86
2020-07-31 00:00:00 21.5 5 Este 11 Este 0 -- -- 79
2020-07-30 23:00:00 20.8 3 Este 17 Sur 0 -- -- 86
2020-07-30 22:00:00 21 5 Sudeste 27 Sudeste 0 -- -- 85
2020-07-30 21:00:00 22.8 17 Sudeste 45 Este 0 -- -- 75
2020-07-30 20:00:00 20.8 6 Sur 10 Noroeste 0 -- -- 87
2020-07-30 19:00:00 22.4 2 Este 16 Oeste 0 -- -- 82
2020-07-30 18:00:00 23.8 5 Noroeste 23 Noroeste 0 -- -- 75
2020-07-30 17:00:00 26.8 17 Noroeste 32 Noroeste 0 -- -- 66
2020-07-30 16:00:00 28.2 22 Noroeste 34 Noroeste 0 -- -- 54
2020-07-30 15:00:00 29.5 8 Noroeste 17 Noroeste 0 -- -- 63
2020-07-30 14:00:00 27.5 6 Noroeste 11 Noroeste 0 -- -- 73
2020-07-30 13:00:00 27.7 4 Noroeste 8 Sur 0 -- -- 72
2020-07-30 12:00:00 26.1 5 Noroeste 10 Sudeste 0 -- -- 72
2020-07-30 11:00:00 25.5 3 Sudoeste 8 Sudoeste 0 -- -- 73
2020-07-30 10:00:00 24.8 3 Este 9 Este 0 -- -- 69
2020-07-30 09:00:00 20.9 4 Oeste 8 Sudoeste 0 -- -- 83
2020-07-30 08:00:00 17.9 4 Noroeste 6 Noroeste 0 -- -- 100
2020-07-30 07:00:00 16.5 0 Calma 7 Este 0 -- -- 100
2020-07-30 06:00:00 15.7 2 Sudeste 5 Este 0 -- -- 100
2020-07-30 05:00:00 15.7 5 Este 8 Este 0 -- -- 100
2020-07-30 04:00:00 16 4 Sudeste 6 Este 0 -- -- 100
2020-07-30 03:00:00 16.1 3 Este 6 Este 0 -- -- 100
2020-07-30 02:00:00 16.3 4 Este 6 Sudeste 0 -- -- 100
2020-07-30 01:00:00 16.5 2 Norte 5 Nordeste 0 -- -- 100
2020-07-30 00:00:00 16.5 4 Este 6 Este 0 -- -- 100
2020-07-29 23:00:00 16.5 2 Sudeste 7 Oeste 0 -- -- 100
2020-07-29 22:00:00 16.5 5 Oeste 10 Oeste 0 -- -- 99
2020-07-29 21:00:00 18.6 8 Nordeste 22 Este 0 -- -- 92
2020-07-29 20:00:00 19 13 Este 26 Sudeste 0 -- -- 91
2020-07-29 19:00:00 19.2 18 Este 29 Este 0 -- -- 90
2020-07-29 18:00:00 20.4 18 Este 36 Este 0 -- -- 86
2020-07-29 17:00:00 20.3 25 Este 36 Sudeste 0 -- -- 85
2020-07-29 16:00:00 20.4 25 Este 40 Este 0 -- -- 87
2020-07-29 15:00:00 20.3 27 Este 36 Este 0 -- -- 86
2020-07-29 14:00:00 20.4 21 Este 31 Este 0 -- -- 85
2020-07-29 13:00:00 19.7 20 Este 32 Este 0 -- -- 88
2020-07-29 12:00:00 18.8 21 Este 36 Este 0 -- -- 89
2020-07-29 11:00:00 18 21 Este 33 Este 0 -- -- 91
2020-07-29 10:00:00 17.6 16 Este 29 Este 0 -- -- 91
2020-07-29 09:00:00 16.5 19 Este 33 Este 0 -- -- 95
2020-07-29 08:00:00 16.1 16 Este 28 Este 0 -- -- 97
2020-07-29 07:00:00 15.8 15 Este 35 Este 0 -- -- 97
2020-07-29 06:00:00 15.5 15 Este 27 Nordeste 0 -- -- 100
2020-07-29 05:00:00 15.1 15 Nordeste 26 Nordeste 0 -- -- 100
2020-07-29 04:00:00 14.9 15 Nordeste 30 Nordeste 0 -- -- 100
2020-07-29 03:00:00 15 13 Nordeste 27 Nordeste 0 -- -- 100
2020-07-29 02:00:00 14.8 14 Nordeste 27 Nordeste 0 -- -- 100
2020-07-29 01:00:00 14.9 17 Nordeste 33 Nordeste 0 -- -- 100
2020-07-29 00:00:00 14.7 16 Nordeste 33 Este 0 -- -- 100
2020-07-28 23:00:00 14.6 17 Este 32 Nordeste 0 -- -- 100
2020-07-28 22:00:00 14.7 13 Nordeste 40 Este 0 -- -- 100
2020-07-28 21:00:00 14.8 15 Nordeste 32 Nordeste 0 -- -- 100
2020-07-28 20:00:00 15.3 17 Nordeste 36 Nordeste 0 -- -- 100
2020-07-28 19:00:00 15.7 11 Norte 32 Nordeste 0 -- -- 100
2020-07-28 18:00:00 15.9 11 Norte 29 Nordeste 0 -- -- 100
2020-07-28 17:00:00 16.2 12 Nordeste 33 Este 0 -- -- 100
2020-07-28 16:00:00 16.6 17 Nordeste 36 Nordeste 0 -- -- 100
2020-07-28 15:00:00 17 19 Nordeste 38 Nordeste 0 -- -- 99
2020-07-28 14:00:00 16.9 9 Norte 17 Noroeste 0 -- -- 100
2020-07-28 13:00:00 17.1 9 Nordeste 19 Este 0 -- -- 100
2020-07-28 12:00:00 16.7 7 Este 14 Norte 0 -- -- 100
2020-07-28 11:00:00 16.6 5 Norte 12 Noroeste 0.2 -- -- 100
2020-07-28 10:00:00 16.3 8 Noroeste 11 Noroeste 0.2 -- -- 100
2020-07-28 09:00:00 16.2 4 Noroeste 6 Noroeste 0 -- -- 100
2020-07-28 08:00:00 15.9 5 Noroeste 12 Noroeste 0.2 -- -- 100
2020-07-28 07:00:00 15.8 6 Noroeste 10 Noroeste 0 -- -- 100
2020-07-28 06:00:00 16.2 5 Noroeste 14 Noroeste 0 -- -- 100
2020-07-28 05:00:00 16.5 6 Noroeste 15 Noroeste 0.2 -- -- 100
2020-07-28 04:00:00 16.8 10 Noroeste 16 Noroeste 0 -- -- 100
2020-07-28 03:00:00 17 9 Noroeste 17 Norte 0 -- -- 100
2020-07-28 02:00:00 17.6 8 Noroeste 14 Noroeste 0 -- -- 100
2020-07-28 01:00:00 18 0 Calma 5 Oeste 0 -- -- 100
2020-07-28 00:00:00 18.1 0 Calma 6 Oeste 0 -- -- 100
2020-07-27 23:00:00 18.5 6 Noroeste 8 Oeste 0 -- -- 99
2020-07-27 22:00:00 19.1 5 Noroeste 14 Nordeste 0 -- -- 95
2020-07-27 21:00:00 19.4 10 Norte 22 Noroeste 0 -- -- 93
2020-07-27 20:00:00 21.1 8 Norte 23 Noroeste 0 -- -- 81
2020-07-27 19:00:00 22.5 18 Noroeste 26 Noroeste 0 -- -- 76
2020-07-27 18:00:00 23.5 16 Noroeste 31 Noroeste 0 -- -- 76
2020-07-27 17:00:00 22.5 21 Noroeste 34 Noroeste 0 -- -- 79
2020-07-27 16:00:00 23.1 19 Noroeste 30 Noroeste 0 -- -- 77
2020-07-27 15:00:00 22.9 18 Noroeste 33 Noroeste 0 -- -- 68
2020-07-27 14:00:00 25.5 19 Noroeste 31 Noroeste 0 -- -- 59
2020-07-27 13:00:00 25.1 10 Noroeste 16 Noroeste 0 -- -- 65
2020-07-27 12:00:00 23.2 6 Noroeste 14 Sudeste 0 -- -- 70
2020-07-27 09:00:00 -- -- -- -- -- -- -- -- --
2020-07-27 08:00:00 -- -- -- -- -- -- -- -- --
2020-07-27 07:00:00 17.3 4 Noroeste 8 Noroeste 0 -- -- 94
2020-07-27 06:00:00 19.1 0 Calma 11 Este 0 -- -- 88
2020-07-27 05:00:00 18.6 3 Sudeste 6 Oeste 0 -- -- 92
2020-07-27 04:00:00 18.6 3 Nordeste 8 Sudoeste 0 -- -- 94
2020-07-27 03:00:00 18.9 0 Calma 7 Este 0 -- -- 93
2020-07-27 02:00:00 18 0 Calma 6 Sudeste 0 -- -- 98
2020-07-27 01:00:00 17.3 3 Este 6 Sur 0 -- -- 100
2020-07-27 00:00:00 16.9 4 Sudeste 6 Sur 0 -- -- 100
2020-07-26 23:00:00 17.4 3 Sudeste 5 Sudeste 0 -- -- 98
2020-07-26 22:00:00 18 0 Calma 9 Noroeste 0 -- -- 95
2020-07-26 21:00:00 19 5 Noroeste 18 Noroeste 0 -- -- 93
2020-07-26 20:00:00 21.2 9 Noroeste 16 Noroeste 0 -- -- 84
2020-07-26 19:00:00 21.5 5 Nordeste 17 Este 0 -- -- 86
2020-07-26 18:00:00 21.3 5 Este 15 Sudeste 0 -- -- 85
2020-07-26 17:00:00 21.2 10 Sudeste 17 Sudeste 0 -- -- 84
2020-07-26 16:00:00 20.3 10 Este 22 Este 0 -- -- 87
2020-07-26 15:00:00 20.6 3 Nordeste 15 Noroeste 0 -- -- 82
2020-07-26 14:00:00 19.1 12 Noroeste 23 Noroeste 0 -- -- 90
2020-07-26 13:00:00 19.8 11 Noroeste 17 Noroeste 0 -- -- 88
2020-07-26 12:00:00 19.1 9 Noroeste 23 Noroeste 0 -- -- 89
2020-07-26 11:00:00 18.9 11 Noroeste 14 Noroeste 0 -- -- 87
2020-07-26 10:00:00 17.7 2 Noroeste 9 Noroeste 0 -- -- 98
2020-07-26 09:00:00 16.6 9 Noroeste 13 Noroeste 0 -- -- 100
2020-07-26 08:00:00 16.5 5 Noroeste 8 Noroeste 0 -- -- 100
2020-07-26 07:00:00 16.5 9 Noroeste 19 Noroeste 0 -- -- 98
2020-07-26 06:00:00 17.5 3 Noroeste 6 Este 0 -- -- 91
2020-07-26 05:00:00 17.4 2 Este 6 Noroeste 0 -- -- 89
2020-07-26 04:00:00 17.4 4 Sudoeste 8 Sudeste 0 -- -- 89
2020-07-26 03:00:00 17.5 3 Sur 10 Sudoeste 0 -- -- 90
2020-07-26 02:00:00 17.8 0 Calma 5 Este 0 -- -- 89
2020-07-26 01:00:00 17.5 4 Este 6 Sudeste 0 -- -- 90
2020-07-26 00:00:00 17 0 Calma 9 Noroeste 0 -- -- 92
2020-07-25 23:00:00 17.1 5 Sudeste 13 Noroeste 0 -- -- 92
2020-07-25 22:00:00 19.1 4 Noroeste 11 Noroeste 0 -- -- 82
2020-07-25 21:00:00 20.8 0 Calma 8 Este 0 -- -- 74
2020-07-25 20:00:00 20.4 4 Norte 31 Noroeste 0 -- -- 78
2020-07-25 19:00:00 21.6 15 Noroeste 24 Noroeste 0 -- -- 75
2020-07-25 18:00:00 21.8 15 Noroeste 29 Noroeste 0 -- -- 76
2020-07-25 17:00:00 22 17 Noroeste 28 Noroeste 0 -- -- 73
2020-07-25 16:00:00 22 8 Noroeste 22 Noroeste 0 -- -- 74
2020-07-25 15:00:00 21.1 14 Noroeste 33 Noroeste 0 -- -- 75
2020-07-25 14:00:00 21.5 20 Noroeste 30 Noroeste 0 -- -- 75
2020-07-25 13:00:00 22.1 7 Sur 17 Oeste 0 -- -- 70
2020-07-25 12:00:00 19.6 8 Noroeste 15 Oeste 0 -- -- 79
2020-07-25 11:00:00 19.5 5 Sur 13 Sudeste 0 -- -- 78
2020-07-25 10:00:00 16.7 7 Sur 12 Sudeste 0 -- -- 88
2020-07-25 09:00:00 14.8 0 Calma 6 Sur 0 -- -- 94
2020-07-25 08:00:00 13.9 3 Sur 5 Sur 0 -- -- 97
2020-07-25 07:00:00 14.1 0 Calma 4 Este 0 -- -- 97
2020-07-25 06:00:00 13.9 3 Sudeste 7 Sudeste 0 -- -- 98
2020-07-25 05:00:00 13.8 6 Este 9 Este 0 -- -- 100
2020-07-25 04:00:00 14.3 0 Calma 4 Este 0 -- -- 100
2020-07-25 03:00:00 14.2 3 Este 4 Este 0 -- -- 99
2020-07-25 02:00:00 14.4 0 Calma 4 Noroeste 0 -- -- 98
2020-07-25 01:00:00 15.1 3 Este 5 Norte 0 -- -- 96
2020-07-25 00:00:00 15.6 0 Calma 6 Sur 0 -- -- 98
2020-07-24 23:00:00 15.8 0 Calma 4 Norte 0 -- -- 97
2020-07-24 22:00:00 16.4 4 Oeste 17 Noroeste 0 -- -- 94
2020-07-24 21:00:00 17.8 15 Noroeste 20 Noroeste 0 -- -- 88
2020-07-24 20:00:00 19.2 14 Noroeste 22 Noroeste 0 -- -- 80
2020-07-24 19:00:00 20 14 Noroeste 23 Noroeste 0 -- -- 71
2020-07-24 18:00:00 20.1 18 Noroeste 27 Noroeste 0 -- -- 65
2020-07-24 17:00:00 20.5 16 Noroeste 27 Noroeste 0 -- -- 60
2020-07-24 16:00:00 20.1 19 Noroeste 27 Noroeste 0 -- -- 57
2020-07-24 15:00:00 19.7 19 Noroeste 28 Noroeste 0 -- -- 75
2020-07-24 14:00:00 18.7 18 Noroeste 29 Noroeste 0 -- -- 86
2020-07-24 13:00:00 18.7 7 Noroeste 14 Noroeste 0 -- -- 86
2020-07-24 12:00:00 16.8 10 Noroeste 17 Noroeste 0 -- -- 93
2020-07-24 11:00:00 16 13 Noroeste 16 Noroeste 0 -- -- 98
2020-07-24 10:00:00 15.1 9 Noroeste 12 Noroeste 0 -- -- 100
2020-07-24 09:00:00 14.7 5 Noroeste 12 Noroeste 0 -- -- 100
2020-07-24 08:00:00 14.7 7 Noroeste 12 Oeste 0 -- -- 100
2020-07-24 07:00:00 14.6 6 Noroeste 11 Noroeste 0 -- -- 100
2020-07-24 06:00:00 14.9 7 Noroeste 18 Norte 0 -- -- 99
2020-07-24 05:00:00 15.1 7 Noroeste 17 Noroeste 0 -- -- 99
2020-07-24 04:00:00 15.1 10 Noroeste 13 Norte 0 -- -- 100
2020-07-24 03:00:00 15.4 4 Noroeste 6 Noroeste 0 -- -- 100
2020-07-24 02:00:00 15.8 3 Noroeste 8 Noroeste 0 -- -- 99
2020-07-24 01:00:00 15.8 2 Noroeste 13 Noroeste 0 -- -- 100
2020-07-24 00:00:00 16 2 Oeste 5 Noroeste 0 -- -- 100
2020-07-23 23:00:00 16.3 3 Sudoeste 7 Noroeste 0 -- -- 100
2020-07-23 22:00:00 16.8 4 Oeste 13 Noroeste 0 -- -- 98
2020-07-23 21:00:00 16.9 3 Noroeste 17 Noroeste 0 -- -- 98
2020-07-23 20:00:00 16.8 15 Noroeste 20 Noroeste 0 -- -- 99
2020-07-23 19:00:00 17.6 8 Noroeste 27 Noroeste 0 -- -- 98
2020-07-23 18:00:00 18.9 16 Noroeste 25 Noroeste 0 -- -- 94
2020-07-23 17:00:00 20.4 11 Noroeste 15 Noroeste 0 -- -- 84
2020-07-23 16:00:00 19.9 7 Noroeste 14 Noroeste 0 -- -- 89
2020-07-23 15:00:00 19.2 4 Oeste 12 Noroeste 0 -- -- 92
2020-07-23 14:00:00 17.8 0 Calma 19 Noroeste 0 -- -- 96
2020-07-23 13:00:00 17.7 9 Noroeste 14 Noroeste 0 -- -- 98
2020-07-23 12:00:00 17.3 2 Noroeste 9 Noroeste 0 -- -- 100
2020-07-23 11:00:00 16.7 7 Noroeste 14 Oeste 0 -- -- 100
2020-07-23 10:00:00 16.6 10 Este 15 Este 0 -- -- 100
2020-07-23 09:00:00 16.1 2 Este 6 Sur 0 -- -- 100
2020-07-23 08:00:00 16.1 2 Este 8 Este 0 -- -- 100
2020-07-23 07:00:00 15.9 4 Este 8 Sudeste 0 -- -- 100
2020-07-23 06:00:00 16.1 6 Este 14 Sudeste 0 -- -- 100
2020-07-23 05:00:00 16.4 5 Sudeste 8 Sudeste 0 -- -- 100
2020-07-23 04:00:00 16.5 5 Este 9 Este 0 -- -- 100
2020-07-23 03:00:00 16.8 2 Sudoeste 12 Este 0 -- -- 100
2020-07-23 02:00:00 16.9 0 Calma 8 Este 0 -- -- 100
2020-07-23 01:00:00 17 3 Norte 10 Este 0 -- -- 100
2020-07-23 00:00:00 17 5 Nordeste 8 Nordeste 0 -- -- 100
2020-07-22 23:00:00 17.2 3 Noroeste 8 Noroeste 0 -- -- 100
2020-07-22 22:00:00 17.5 4 Noroeste 9 Noroeste 0 -- -- 100
2020-07-22 21:00:00 18.3 8 Noroeste 19 Noroeste 0 -- -- 98
2020-07-22 20:00:00 21 10 Noroeste 17 Noroeste 0 -- -- 86
2020-07-22 19:00:00 21.7 8 Noroeste 24 Noroeste 0 -- -- 83
2020-07-22 18:00:00 22.7 9 Oeste 25 Noroeste 0 -- -- 79
2020-07-22 17:00:00 22.5 12 Noroeste 18 Noroeste 0 -- -- 82
2020-07-22 16:00:00 21.4 9 Noroeste 18 Noroeste 0 -- -- 83
2020-07-22 15:00:00 20.5 14 Noroeste 21 Noroeste 0 -- -- 88
2020-07-22 14:00:00 19.5 10 Noroeste 15 Noroeste 0 -- -- 94
2020-07-22 13:00:00 17.7 10 Noroeste 13 Noroeste 0 -- -- 100
2020-07-22 12:00:00 17.2 6 Noroeste 9 Noroeste 0 -- -- 100
2020-07-22 11:00:00 16.8 6 Noroeste 8 Noroeste 0 -- -- 100
2020-07-22 10:00:00 16.2 0 Calma 6 Sudeste 0 -- -- 100
2020-07-22 09:00:00 15.5 3 Este 5 Sudeste 0 -- -- 100
2020-07-22 08:00:00 15.2 0 Calma 5 Sudeste 0 -- -- 100
2020-07-22 07:00:00 15 0 Calma 6 Sur 0 -- -- 100
2020-07-22 06:00:00 15.6 4 Sudeste 8 Noroeste 0 -- -- 100
2020-07-22 05:00:00 15.7 3 Oeste 10 Nordeste 0 -- -- 100
2020-07-22 04:00:00 16.2 4 Este 15 Este 0 -- -- 100
2020-07-22 03:00:00 16.1 8 Nordeste 14 Nordeste 0 -- -- 100
2020-07-22 02:00:00 16.2 6 Norte 22 Este 0 -- -- 100
2020-07-22 01:00:00 16.3 12 Nordeste 18 Nordeste 0 -- -- 100
2020-07-22 00:00:00 16.2 4 Este 16 Nordeste 0 -- -- 100
2020-07-21 23:00:00 16.4 5 Noroeste 16 Nordeste 0 -- -- 100
2020-07-21 22:00:00 16.8 8 Nordeste 24 Nordeste 0 -- -- 100
2020-07-21 21:00:00 16.4 13 Nordeste 32 Nordeste 0 -- -- 100
2020-07-21 20:00:00 16.4 21 Este 34 Este 0 -- -- 100
2020-07-21 19:00:00 16.6 17 Este 31 Este 0 -- -- 100
2020-07-21 18:00:00 16.6 22 Nordeste 36 Este 0 -- -- 100
2020-07-21 17:00:00 18 21 Este 35 Este 0 -- -- 94
2020-07-21 16:00:00 18.7 18 Este 33 Este 0 -- -- 89
2020-07-21 15:00:00 17.8 15 Nordeste 26 Nordeste 0 -- -- 89
2020-07-21 14:00:00 19.9 14 Este 30 Este 0 -- -- 83
2020-07-21 13:00:00 20.3 20 Este 31 Este 0 -- -- 86
2020-07-21 12:00:00 19.5 11 Nordeste 33 Este 0 -- -- 91
2020-07-21 11:00:00 17.6 12 Nordeste 28 Este 0 -- -- 96
2020-07-21 10:00:00 15.8 15 Nordeste 29 Este 0 -- -- 100
2020-07-21 09:00:00 15.5 17 Nordeste 29 Nordeste 0 -- -- 100
2020-07-21 08:00:00 15.5 16 Nordeste 26 Nordeste 0 -- -- 100
2020-07-21 07:00:00 15.2 11 Nordeste 25 Nordeste 0 -- -- 100
2020-07-21 06:00:00 15.4 15 Nordeste 33 Nordeste 0 -- -- 100
2020-07-21 05:00:00 15.2 14 Nordeste 27 Nordeste 0 -- -- 100
2020-07-21 04:00:00 15.4 15 Nordeste 24 Nordeste 0 -- -- 100
2020-07-21 03:00:00 15.7 14 Nordeste 28 Nordeste 0 -- -- 100
2020-07-21 02:00:00 15.9 13 Nordeste 21 Nordeste 0 -- -- 100
2020-07-21 01:00:00 16 14 Nordeste 26 Norte 0 -- -- 99
2020-07-21 00:00:00 15.9 15 Nordeste 26 Norte 0 -- -- 98
2020-07-20 23:00:00 15.7 14 Nordeste 26 Nordeste 0 -- -- 100
2020-07-20 22:00:00 15.7 16 Nordeste 26 Nordeste 0 -- -- 100
2020-07-20 21:00:00 16 17 Nordeste 24 Este 0 -- -- 100
2020-07-20 20:00:00 16.2 15 Nordeste 26 Este 0 -- -- 98
2020-07-20 19:00:00 16.4 10 Nordeste 21 Nordeste 0 -- -- 97
2020-07-20 18:00:00 16.3 11 Nordeste 21 Nordeste 0 -- -- 98
2020-07-20 17:00:00 16.2 13 Nordeste 24 Nordeste 0 -- -- 98
2020-07-20 16:00:00 16.2 12 Nordeste 25 Este 0 -- -- 98
2020-07-20 15:00:00 16.8 10 Nordeste 23 Nordeste 0 -- -- 93
2020-07-20 14:00:00 16.9 15 Norte 26 Nordeste 0 -- -- 93
2020-07-20 13:00:00 18.5 13 Norte 22 Norte 0 -- -- 89
2020-07-20 12:00:00 18.4 13 Nordeste 22 Este 0 -- -- 89
2020-07-20 11:00:00 17.1 12 Nordeste 24 Este 0 -- -- 95
2020-07-20 10:00:00 16.7 10 Nordeste 23 Nordeste 0 -- -- 96
2020-07-20 09:00:00 16.5 8 Nordeste 17 Nordeste 0 -- -- 96
2020-07-20 08:00:00 16.4 9 Nordeste 22 Nordeste 0 -- -- 96
2020-07-20 07:00:00 15.9 10 Nordeste 21 Nordeste 0 -- -- 96
2020-07-20 06:00:00 16.4 12 Nordeste 23 Nordeste 0 -- -- 95
2020-07-20 05:00:00 16.4 8 Norte 17 Nordeste 0 -- -- 97
2020-07-20 04:00:00 16.6 7 Nordeste 15 Nordeste 0 -- -- 98
2020-07-20 03:00:00 16.6 5 Nordeste 15 Nordeste 0 -- -- 99
2020-07-20 02:00:00 16.7 10 Norte 17 Nordeste 0 -- -- 100
2020-07-20 01:00:00 16.8 10 Nordeste 19 Nordeste 0 -- -- 100
2020-07-20 00:00:00 16.8 8 Nordeste 18 Nordeste 0 -- -- 100
2020-07-19 23:00:00 16.9 6 Nordeste 17 Nordeste 0 -- -- 100
2020-07-19 22:00:00 17.2 4 Norte 13 Norte 0 -- -- 100
2020-07-19 21:00:00 17.7 8 Norte 19 Norte 0 -- -- 98
2020-07-19 20:00:00 18.4 12 Norte 26 Norte 0 -- -- 96
2020-07-19 19:00:00 19 17 Norte 24 Norte 0 -- -- 94
2020-07-19 18:00:00 21.1 4 Este 18 Este 0 -- -- 89
2020-07-19 17:00:00 19.6 6 Norte 14 Nordeste 0 -- -- 97
2020-07-19 16:00:00 19 6 Sudeste 14 Sudeste 0 -- -- 100
2020-07-19 15:00:00 17.8 8 Norte 15 Norte 0.2 -- -- 100
2020-07-19 14:00:00 17.7 4 Oeste 13 Oeste 0 -- -- 100
2020-07-19 13:00:00 17.6 10 Norte 20 Noroeste 0 -- -- 100
2020-07-19 12:00:00 17.8 4 Noroeste 11 Noroeste 0 -- -- 100
2020-07-19 11:00:00 17.5 4 Nordeste 11 Este 0 -- -- 100
2020-07-19 10:00:00 16.9 5 Noroeste 8 Noroeste 0 -- -- 100
2020-07-19 09:00:00 16.6 3 Noroeste 6 Noroeste 0 -- -- 100
2020-07-19 08:00:00 16.4 2 Noroeste 6 Noroeste 0.2 -- -- 100
2020-07-19 07:00:00 16.2 2 Noroeste 8 Noroeste 0 -- -- 100
2020-07-19 06:00:00 16.1 2 Norte 10 Noroeste 0 -- -- 100
2020-07-19 05:00:00 15.9 0 Calma 8 Noroeste 0 -- -- 100
2020-07-19 04:00:00 15.7 4 Sudoeste 10 Oeste 0 -- -- 100
2020-07-19 03:00:00 15.8 2 Sur 5 Sudoeste 0 -- -- 100
2020-07-19 02:00:00 16.3 3 Sudeste 6 Noroeste 0 -- -- 100
2020-07-19 01:00:00 16.7 0 Calma 5 Sudeste 0 -- -- 100
2020-07-19 00:00:00 17.5 2 Este 10 Noroeste 0 -- -- 99
2020-07-18 23:00:00 18.6 3 Noroeste 7 Noroeste 0 -- -- 94
2020-07-18 22:00:00 20.3 0 Calma 5 Noroeste 0 -- -- 89
2020-07-18 21:00:00 22.4 0 Calma 13 Noroeste 0 -- -- 82
2020-07-18 20:00:00 23.3 6 Noroeste 16 Noroeste 0 -- -- 81
2020-07-18 19:00:00 23.7 9 Noroeste 19 Noroeste 0 -- -- 79
2020-07-18 18:00:00 24.1 9 Noroeste 20 Noroeste 0 -- -- 77
2020-07-18 17:00:00 23.9 9 Noroeste 19 Noroeste 0 -- -- 76
2020-07-18 16:00:00 24.9 10 Noroeste 20 Oeste 0 -- -- 69
2020-07-18 15:00:00 24.4 12 Noroeste 20 Noroeste 0 -- -- 72
2020-07-18 14:00:00 24.1 9 Noroeste 15 Noroeste 0 -- -- 72
2020-07-18 13:00:00 22.4 7 Noroeste 14 Noroeste 0 -- -- 75
2020-07-18 12:00:00 20.5 7 Noroeste 14 Noroeste 0 -- -- 84
2020-07-18 11:00:00 19.1 4 Noroeste 12 Noroeste 0 -- -- 84
2020-07-18 10:00:00 17.2 5 Noroeste 9 Noroeste 0 -- -- 89
2020-07-18 09:00:00 17.3 3 Noroeste 8 Sudoeste 0 -- -- 84
2020-07-18 08:00:00 15.1 3 Oeste 8 Sudoeste 0 -- -- 96
2020-07-18 07:00:00 14.5 3 Sur 9 Sudoeste 0 -- -- 97
2020-07-18 06:00:00 16.3 8 Norte 17 Nordeste 0 -- -- 88
2020-07-18 05:00:00 16.6 6 Nordeste 22 Nordeste 0 -- -- 89
2020-07-18 04:00:00 16.9 16 Este 25 Este 0 -- -- 88
2020-07-18 03:00:00 16.8 9 Nordeste 17 Nordeste 0 -- -- 87
2020-07-18 02:00:00 16.9 10 Nordeste 24 Este 0 -- -- 88
2020-07-18 01:00:00 17.3 14 Este 20 Este 0 -- -- 85
2020-07-18 00:00:00 17.4 6 Sudeste 15 Este 0 -- -- 85
2020-07-17 23:00:00 17.1 6 Sudeste 12 Sudeste 0 -- -- 89
2020-07-17 22:00:00 17.6 5 Noroeste 12 Noroeste 0 -- -- 88
2020-07-17 21:00:00 19.9 5 Noroeste 13 Noroeste 0 -- -- 80
2020-07-17 20:00:00 21.5 8 Noroeste 18 Sudoeste 0 -- -- 75
2020-07-17 19:00:00 22.9 5 Noroeste 17 Oeste 0 -- -- 71
2020-07-17 18:00:00 24.2 8 Oeste 21 Nordeste 0 -- -- 66
2020-07-17 17:00:00 23.5 11 Este 26 Este 0 -- -- 65
2020-07-17 16:00:00 23.6 9 Este 23 Sudeste 0 -- -- 67
2020-07-17 15:00:00 23 14 Sudeste 22 Este 0 -- -- 66
2020-07-17 14:00:00 22.5 14 Sudeste 22 Este 0 -- -- 67
2020-07-17 13:00:00 20.7 10 Noroeste 20 Oeste 0 -- -- 77
2020-07-17 12:00:00 19.6 12 Noroeste 19 Noroeste 0 -- -- 81
2020-07-17 11:00:00 18.4 8 Noroeste 13 Noroeste 0 -- -- 87
2020-07-17 10:00:00 17 3 Noroeste 12 Este 0 -- -- 86
2020-07-17 09:00:00 17 4 Nordeste 14 Nordeste 0 -- -- 85
2020-07-17 08:00:00 14.6 10 Este 25 Este 0 -- -- 91
2020-07-17 07:00:00 14.5 17 Este 28 Nordeste 0 -- -- 94
2020-07-17 06:00:00 14.4 8 Este 23 Este 0 -- -- 96
2020-07-17 05:00:00 14.5 10 Nordeste 17 Nordeste 0 -- -- 95
2020-07-17 04:00:00 14.6 11 Este 23 Este 0 -- -- 96
2020-07-17 03:00:00 14.5 8 Este 20 Este 0 -- -- 96
2020-07-17 02:00:00 14.7 3 Nordeste 26 Este 0 -- -- 96
2020-07-17 01:00:00 14.7 7 Este 17 Nordeste 0 -- -- 96
2020-07-17 00:00:00 14.6 8 Este 18 Este 0 -- -- 97
2020-07-16 23:00:00 14.8 5 Sudeste 19 Este 0 -- -- 97
2020-07-16 22:00:00 15.3 7 Norte 21 Nordeste 0 -- -- 94
2020-07-16 21:00:00 16.4 14 Nordeste 26 Nordeste 0 -- -- 89
2020-07-16 20:00:00 17.1 16 Nordeste 29 Este 0 -- -- 86
2020-07-16 19:00:00 17.9 21 Este 31 Este 0 -- -- 82
2020-07-16 18:00:00 19.4 15 Nordeste 25 Nordeste 0 -- -- 75
2020-07-16 17:00:00 20.9 9 Este 27 Este 0 -- -- 72
2020-07-16 16:00:00 20.2 11 Nordeste 25 Nordeste 0 -- -- 72
2020-07-16 15:00:00 20.1 11 Norte 25 Norte 0 -- -- 76
2020-07-16 14:00:00 19.5 13 Nordeste 22 Nordeste 0 -- -- 76
2020-07-16 13:00:00 19.1 11 Nordeste 23 Nordeste 0 -- -- 78
2020-07-16 12:00:00 18.5 12 Nordeste 22 Nordeste 0 -- -- 81
2020-07-16 11:00:00 17.6 14 Nordeste 23 Nordeste 0 -- -- 80
2020-07-16 10:00:00 16.7 9 Este 23 Este 0 -- -- 83
2020-07-16 09:00:00 14.9 9 Este 19 Este 0 -- -- 92
2020-07-16 08:00:00 13.9 9 Nordeste 19 Este 0 -- -- 96
2020-07-16 07:00:00 13.7 13 Nordeste 21 Este 0 -- -- 94
2020-07-16 06:00:00 14 10 Este 22 Este 0 -- -- 94
2020-07-16 05:00:00 14.3 11 Nordeste 21 Este 0 -- -- 94
2020-07-16 04:00:00 14.3 10 Nordeste 22 Este 0 -- -- 95
2020-07-16 03:00:00 13.9 12 Nordeste 24 Este 0 -- -- 97
2020-07-16 02:00:00 14.2 12 Nordeste 22 Nordeste 0 -- -- 95
2020-07-16 01:00:00 14.3 14 Nordeste 25 Nordeste 0 -- -- 95
2020-07-16 00:00:00 14.4 15 Nordeste 21 Nordeste 0 -- -- 94
2020-07-15 23:00:00 14.4 12 Nordeste 21 Nordeste 0 -- -- 94
2020-07-15 22:00:00 14.5 11 Nordeste 19 Nordeste 0 -- -- 95
2020-07-15 21:00:00 14.9 10 Nordeste 18 Nordeste 0 -- -- 94
2020-07-15 20:00:00 15.2 8 Nordeste 19 Nordeste 0 -- -- 94
2020-07-15 19:00:00 15.9 11 Nordeste 18 Norte 0 -- -- 89
2020-07-15 18:00:00 16.8 9 Nordeste 22 Nordeste 0 -- -- 87
2020-07-15 17:00:00 17.3 10 Nordeste 22 Nordeste 0.2 -- -- 86
2020-07-15 16:00:00 17.6 8 Nordeste 23 Norte 0 -- -- 84
2020-07-15 15:00:00 16.9 14 Norte 25 Nordeste 0 -- -- 88
2020-07-15 14:00:00 17.3 10 Nordeste 21 Este 0 -- -- 89
2020-07-15 13:00:00 16 12 Nordeste 18 Nordeste 0 -- -- 93
2020-07-15 12:00:00 15.6 10 Norte 18 Norte 0 -- -- 95
2020-07-15 11:00:00 15.8 7 Nordeste 17 Nordeste 0 -- -- 96
2020-07-15 10:00:00 15 12 Nordeste 19 Nordeste 0 -- -- 99
2020-07-15 09:00:00 14.5 13 Nordeste 22 Nordeste 0 -- -- 100
2020-07-15 08:00:00 14.1 8 Norte 24 Nordeste 0 -- -- 100
2020-07-15 07:00:00 14.2 10 Nordeste 19 Nordeste 0 -- -- 100
2020-07-15 06:00:00 14.3 6 Nordeste 11 Este 0.2 -- -- 100
2020-07-15 05:00:00 14.4 4 Norte 15 Nordeste 0 -- -- 100
2020-07-15 04:00:00 14.5 7 Nordeste 18 Este 0 -- -- 99
2020-07-15 03:00:00 14.5 3 Norte 10 Este 0 -- -- 100
2020-07-15 02:00:00 14.8 3 Norte 13 Este 0 -- -- 98
2020-07-15 01:00:00 15.3 7 Nordeste 26 Este 0 -- -- 91
2020-07-15 00:00:00 15.3 15 Este 25 Este 0 -- -- 94
2020-07-14 23:00:00 15.4 11 Nordeste 21 Nordeste 0 -- -- 91
2020-07-14 22:00:00 15.5 10 Nordeste 25 Este 0 -- -- 90
2020-07-14 21:00:00 15.9 8 Nordeste 23 Este 0 -- -- 84
2020-07-14 20:00:00 17.2 12 Nordeste 27 Nordeste 0 -- -- 78
2020-07-14 19:00:00 18 12 Nordeste 28 Nordeste 0 -- -- 75
2020-07-14 18:00:00 19.1 14 Norte 27 Noroeste 0 -- -- 65
2020-07-14 17:00:00 18.8 21 Nordeste 32 Noroeste 0 -- -- 46
2020-07-14 16:00:00 19.3 22 Noroeste 34 Noroeste 0 -- -- 70
2020-07-14 15:00:00 19.3 22 Noroeste 32 Noroeste 0 -- -- 72
2020-07-14 14:00:00 19.3 22 Noroeste 32 Noroeste 0 -- -- 73
2020-07-14 13:00:00 18.9 12 Norte 21 Noroeste 0 -- -- 76
2020-07-14 12:00:00 17.4 8 Norte 21 Noroeste 0 -- -- 85
2020-07-14 11:00:00 16.7 9 Noroeste 18 Noroeste 0 -- -- 92
2020-07-14 10:00:00 15.7 6 Noroeste 11 Noroeste 0 -- -- 95
2020-07-14 09:00:00 15.1 4 Norte 16 Este 0 -- -- 93
2020-07-14 08:00:00 14.1 3 Norte 7 Norte 0 -- -- 96
2020-07-14 07:00:00 13.2 3 Nordeste 18 Este 0 -- -- 100
2020-07-14 06:00:00 12.7 0 Calma 8 Noroeste 0 -- -- 100
2020-07-14 05:00:00 12.8 3 Sur 6 Sudeste 0 -- -- 100
2020-07-14 04:00:00 13.6 3 Norte 5 Oeste 0 -- -- 100
2020-07-14 03:00:00 13.9 0 Calma 10 Noroeste 0 -- -- 100
2020-07-14 02:00:00 14.3 4 Nordeste 10 Este 0 -- -- 96
2020-07-14 01:00:00 15.2 6 Noroeste 10 Oeste 0 -- -- 95
2020-07-14 00:00:00 15 0 Calma 9 Oeste 0 -- -- 94
2020-07-13 23:00:00 15.6 3 Sudeste 25 Este 0 -- -- 91
2020-07-13 22:00:00 16.3 9 Este 21 Este 0 -- -- 89
2020-07-13 21:00:00 18.6 9 Este 23 Este 0 -- -- 71
2020-07-13 20:00:00 19.1 11 Este 36 Este 0 -- -- 71
2020-07-13 19:00:00 20.7 19 Norte 30 Norte 0 -- -- 58
2020-07-13 18:00:00 20.9 18 Nordeste 36 Nordeste 0 -- -- 57
2020-07-13 17:00:00 21.1 21 Nordeste 36 Nordeste 0 -- -- 56
2020-07-13 16:00:00 21.7 21 Nordeste 38 Este 0 -- -- 54
2020-07-13 15:00:00 21.4 19 Nordeste 33 Nordeste 0 -- -- 61
2020-07-13 14:00:00 21.5 19 Nordeste 29 Norte 0 -- -- 69
2020-07-13 13:00:00 21.6 13 Norte 26 Nordeste 0 -- -- 68
2020-07-13 12:00:00 21.4 15 Nordeste 31 Este 0 -- -- 65
2020-07-13 11:00:00 20.1 13 Este 35 Este 0 -- -- 67
2020-07-13 10:00:00 18.6 14 Nordeste 31 Este 0 -- -- 74
2020-07-13 09:00:00 16.9 5 Norte 14 Oeste 0 -- -- 87
2020-07-13 08:00:00 15.4 3 Este 13 Nordeste 0 -- -- 89
2020-07-13 07:00:00 14.8 6 Nordeste 25 Nordeste 0 -- -- 92
2020-07-13 06:00:00 15.1 12 Nordeste 26 Nordeste 0 -- -- 92
2020-07-13 05:00:00 15.2 13 Nordeste 28 Este 0 -- -- 94
2020-07-13 04:00:00 15.6 16 Nordeste 29 Nordeste 0 -- -- 93
2020-07-13 03:00:00 15.7 15 Nordeste 26 Nordeste 0 -- -- 96
2020-07-13 02:00:00 15.7 10 Nordeste 18 Nordeste 0 -- -- 96
2020-07-13 01:00:00 15.6 10 Este 19 Este 0 -- -- 96
2020-07-13 00:00:00 16.2 8 Este 19 Este 0 -- -- 92
2020-07-12 23:00:00 16.4 12 Este 22 Este 0 -- -- 94
2020-07-12 22:00:00 17.1 13 Este 23 Este 0 -- -- 92
2020-07-12 21:00:00 18 17 Nordeste 28 Nordeste 0 -- -- 89
2020-07-12 20:00:00 18.8 19 Nordeste 31 Nordeste 0 -- -- 86
2020-07-12 19:00:00 18.7 19 Nordeste 37 Nordeste 0 -- -- 87
2020-07-12 18:00:00 19.6 19 Nordeste 41 Este 0 -- -- 83
2020-07-12 17:00:00 20.8 22 Este 42 Este 0 -- -- 81
2020-07-12 16:00:00 21.1 25 Este 37 Este 0 -- -- 77
2020-07-12 15:00:00 22.3 17 Nordeste 30 Este 0 -- -- 75
2020-07-12 14:00:00 22.7 13 Nordeste 26 Nordeste 0 -- -- 75
2020-07-12 13:00:00 23 9 Nordeste 30 Este 0 -- -- 74
2020-07-12 12:00:00 22 6 Noroeste 20 Sur 0 -- -- 78
2020-07-12 11:00:00 21 5 Noroeste 30 Sudeste 0 -- -- 78
2020-07-12 10:00:00 19.1 14 Sudeste 42 Este 0 -- -- 83
2020-07-12 09:00:00 16.9 19 Este 35 Este 0 -- -- 91
2020-07-12 08:00:00 16.4 13 Sudeste 27 Sudeste 0 -- -- 93
2020-07-12 07:00:00 16.2 19 Este 36 Este 0 -- -- 92
2020-07-12 06:00:00 16.2 22 Este 46 Este 0 -- -- 94
2020-07-12 05:00:00 16.3 32 Este 47 Este 0 -- -- 94
2020-07-12 04:00:00 16.2 23 Este 34 Este 0 -- -- 94
2020-07-12 03:00:00 16.4 11 Este 33 Este 0 -- -- 94
2020-07-12 02:00:00 16.2 15 Nordeste 36 Este 0 -- -- 94
2020-07-12 01:00:00 16.1 18 Nordeste 43 Este 0 -- -- 95
2020-07-12 00:00:00 16.4 24 Nordeste 39 Este 0 -- -- 94
2020-07-11 23:00:00 16.4 23 Nordeste 45 Nordeste 0 -- -- 95
2020-07-11 22:00:00 16.9 24 Nordeste 42 Nordeste 0 -- -- 93
2020-07-11 21:00:00 17.4 19 Nordeste 41 Este 0 -- -- 90
2020-07-11 20:00:00 17.6 26 Nordeste 46 Nordeste 0 -- -- 89
2020-07-11 19:00:00 18.7 24 Nordeste 44 Este 0 -- -- 84
2020-07-11 18:00:00 19.4 23 Nordeste 47 Este 0 -- -- 83
2020-07-11 17:00:00 19.6 25 Este 45 Este 0 -- -- 80
2020-07-11 16:00:00 19.8 23 Este 41 Este 0 -- -- 79
2020-07-11 15:00:00 19.5 21 Este 37 Nordeste 0 -- -- 79
2020-07-11 14:00:00 19 18 Nordeste 32 Nordeste 0 -- -- 79
2020-07-11 13:00:00 19 16 Este 44 Este 0 -- -- 76
2020-07-11 12:00:00 18.3 17 Este 37 Este 0 -- -- 80
2020-07-11 11:00:00 17.3 21 Este 36 Este 0 -- -- 84
2020-07-11 10:00:00 16.2 14 Este 48 Sudeste 0 -- -- 86
2020-07-11 09:00:00 15.3 16 Nordeste 36 Este 0 -- -- 90
2020-07-11 08:00:00 14.7 17 Nordeste 33 Este 0 -- -- 95
2020-07-11 07:00:00 14.5 15 Nordeste 37 Nordeste 0 -- -- 95
2020-07-11 06:00:00 14.8 18 Nordeste 41 Nordeste 0 -- -- 94
2020-07-11 05:00:00 14.7 18 Nordeste 31 Nordeste 0 -- -- 95
2020-07-11 04:00:00 14.6 14 Nordeste 39 Nordeste 0 -- -- 96
2020-07-11 03:00:00 14.3 13 Nordeste 30 Nordeste 0 -- -- 98
2020-07-11 02:00:00 14.5 17 Nordeste 31 Este 0 -- -- 96
2020-07-11 01:00:00 14.6 17 Nordeste 27 Nordeste 0 -- -- 94
2020-07-11 00:00:00 14.6 16 Nordeste 26 Nordeste 0 -- -- 95
2020-07-10 23:00:00 14.3 11 Nordeste 22 Nordeste 0 -- -- 94
2020-07-10 22:00:00 14.5 13 Nordeste 27 Nordeste 0 -- -- 93
2020-07-10 21:00:00 14.9 18 Nordeste 37 Nordeste 0 -- -- 92
2020-07-10 20:00:00 15 22 Nordeste 35 Nordeste 0 -- -- 93
2020-07-10 19:00:00 14.7 18 Nordeste 28 Nordeste 0.2 -- -- 96
2020-07-10 18:00:00 15.2 11 Norte 25 Nordeste 0 -- -- 96
2020-07-10 17:00:00 15.2 13 Nordeste 19 Nordeste 0 -- -- 97
2020-07-10 16:00:00 15.2 12 Nordeste 19 Nordeste 0 -- -- 98
2020-07-10 15:00:00 14.8 16 Norte 23 Norte 0 -- -- 99
2020-07-10 14:00:00 16.2 7 Este 17 Norte 0 -- -- 99
2020-07-10 13:00:00 14.9 9 Norte 22 Norte 0 -- -- 100
2020-07-10 12:00:00 15.8 5 Norte 18 Noroeste 0.2 -- -- 100
2020-07-10 11:00:00 14.7 8 Noroeste 14 Noroeste 0 -- -- 100
2020-07-10 10:00:00 14.4 6 Noroeste 7 Noroeste 0.4 -- -- 100
2020-07-10 09:00:00 14.2 0 Calma 3 Noroeste 0.2 -- -- 100
2020-07-10 08:00:00 13.7 0 Calma 5 Noroeste 0 -- -- 100
2020-07-10 07:00:00 13.8 4 Noroeste 10 Noroeste 0 -- -- 97
2020-07-10 06:00:00 14.4 0 Calma 8 Este 0 -- -- 90
2020-07-10 05:00:00 13.8 7 Este 9 Este 0 -- -- 93
2020-07-10 04:00:00 13.9 3 Este 5 Sudeste 0 -- -- 99
2020-07-10 03:00:00 14 3 Noroeste 13 Noroeste 0 -- -- 100
2020-07-10 02:00:00 14.4 4 Noroeste 12 Noroeste 0 -- -- 100
2020-07-10 01:00:00 14.2 4 Norte 8 Noroeste 0 -- -- 100
2020-07-10 00:00:00 14.4 0 Calma 6 Noroeste 0 -- -- 97
2020-07-09 23:00:00 14.9 0 Calma 10 Oeste 0 -- -- 99
2020-07-09 22:00:00 16.3 7 Noroeste 15 Noroeste 0 -- -- 93
2020-07-09 21:00:00 18.3 9 Noroeste 18 Noroeste 0 -- -- 84
2020-07-09 20:00:00 19.1 13 Noroeste 22 Noroeste 0 -- -- 78
2020-07-09 19:00:00 19.8 15 Noroeste 23 Noroeste 0 -- -- 72
2020-07-09 18:00:00 20.7 14 Noroeste 32 Noroeste 0 -- -- 73
2020-07-09 17:00:00 20.6 18 Noroeste 31 Noroeste 0 -- -- 75
2020-07-09 16:00:00 21.2 18 Noroeste 27 Noroeste 0 -- -- 81
2020-07-09 15:00:00 21.5 13 Noroeste 28 Noroeste 0 -- -- 79
2020-07-09 14:00:00 21 17 Noroeste 25 Noroeste 0 -- -- 78
2020-07-09 13:00:00 20.4 16 Noroeste 22 Noroeste 0 -- -- 83
2020-07-09 12:00:00 19.3 5 Noroeste 13 Noroeste 0 -- -- 87
2020-07-09 11:00:00 17.3 5 Noroeste 12 Noroeste 0 -- -- 96
2020-07-09 10:00:00 16.8 11 Noroeste 15 Noroeste 0 -- -- 100
2020-07-09 09:00:00 14.8 5 Sudeste 9 Noroeste 0 -- -- 100
2020-07-09 08:00:00 14 6 Sudeste 8 Sudeste 0 -- -- 100
2020-07-09 07:00:00 14.2 5 Noroeste 9 Este 0 -- -- 100
2020-07-09 06:00:00 14.6 3 Este 14 Este 0 -- -- 100
2020-07-09 05:00:00 15.2 7 Este 16 Nordeste 0 -- -- 100
2020-07-09 04:00:00 15.3 0 Calma 18 Noroeste 0 -- -- 100
2020-07-09 03:00:00 15.7 8 Noroeste 19 Este 0 -- -- 97
2020-07-09 02:00:00 15.6 4 Noroeste 18 Este 0 -- -- 98
2020-07-09 01:00:00 15.9 9 Este 16 Nordeste 0 -- -- 96
2020-07-09 00:00:00 16 6 Nordeste 26 Nordeste 0 -- -- 95
2020-07-08 23:00:00 16.3 10 Nordeste 23 Nordeste 0 -- -- 97
2020-07-08 22:00:00 16.9 16 Sudeste 24 Este 0 -- -- 95
2020-07-08 21:00:00 17.4 7 Nordeste 24 Norte 0 -- -- 94
2020-07-08 20:00:00 17.3 14 Nordeste 31 Nordeste 0 -- -- 96
2020-07-08 19:00:00 18.4 14 Norte 29 Nordeste 0 -- -- 93
2020-07-08 18:00:00 18 18 Nordeste 36 Nordeste 0 -- -- 94
2020-07-08 17:00:00 18.2 20 Nordeste 32 Nordeste 0 -- -- 94
2020-07-08 16:00:00 19.5 16 Nordeste 28 Nordeste 0 -- -- 88
2020-07-08 15:00:00 18.8 13 Nordeste 24 Nordeste 0 -- -- 91
2020-07-08 14:00:00 18.8 11 Nordeste 26 Nordeste 0 -- -- 87
2020-07-08 13:00:00 18.2 15 Nordeste 29 Este 0 -- -- 86
2020-07-08 12:00:00 17 18 Este 34 Este 0 -- -- 90
2020-07-08 11:00:00 16.8 14 Nordeste 28 Nordeste 0 -- -- 89
2020-07-08 10:00:00 16.2 13 Nordeste 28 Este 0 -- -- 92
2020-07-08 09:00:00 15.6 12 Nordeste 27 Nordeste 0 -- -- 96
2020-07-08 08:00:00 15.7 18 Nordeste 29 Nordeste 0 -- -- 96
2020-07-08 07:00:00 15.5 16 Nordeste 32 Nordeste 0 -- -- 95
2020-07-08 06:00:00 15.9 10 Este 26 Nordeste 0 -- -- 96
2020-07-08 05:00:00 15.9 13 Este 27 Nordeste 0 -- -- 97
2020-07-08 04:00:00 16.2 15 Nordeste 39 Este 0 -- -- 96
2020-07-08 03:00:00 16.3 12 Este 29 Este 0 -- -- 95
2020-07-08 02:00:00 16.3 19 Este 26 Este 0 -- -- 95
2020-07-08 01:00:00 16.2 15 Este 27 Este 0 -- -- 95
2020-07-08 00:00:00 15.7 13 Este 25 Este 0 -- -- 96
2020-07-07 23:00:00 15.7 5 Este 15 Este 0 -- -- 96
2020-07-07 22:00:00 16.2 5 Este 14 Sur 0 -- -- 93
2020-07-07 21:00:00 17.7 9 Noroeste 25 Este 0 -- -- 88
2020-07-07 20:00:00 19.8 8 Sudeste 17 Este 0 -- -- 78
2020-07-07 19:00:00 19.9 5 Este 18 Este 0 -- -- 80
2020-07-07 18:00:00 19.7 9 Este 23 Este 0 -- -- 78
2020-07-07 17:00:00 20.3 11 Este 21 Este 0 -- -- 76
2020-07-07 16:00:00 20.6 9 Este 23 Este 0 -- -- 74
2020-07-07 15:00:00 20.6 12 Nordeste 26 Este 0 -- -- 76
2020-07-07 14:00:00 20.2 13 Nordeste 27 Nordeste 0 -- -- 75
2020-07-07 13:00:00 19.2 17 Sudeste 36 Este 0 -- -- 77
2020-07-07 12:00:00 17.3 9 Este 33 Este 0 -- -- 84
2020-07-07 11:00:00 15.7 11 Sudeste 33 Este 0 -- -- 89
2020-07-07 10:00:00 14.8 19 Este 41 Este 0 -- -- 90
2020-07-07 09:00:00 14 21 Este 40 Este 0 -- -- 94
2020-07-07 08:00:00 13.7 22 Este 45 Este 0 -- -- 95
2020-07-07 07:00:00 13.8 17 Este 45 Sudeste 0 -- -- 95
2020-07-07 06:00:00 13.8 13 Nordeste 35 Este 0 -- -- 95
2020-07-07 05:00:00 13.8 15 Nordeste 42 Nordeste 0 -- -- 96
2020-07-07 04:00:00 13.8 18 Nordeste 36 Nordeste 0 -- -- 99
2020-07-07 03:00:00 13.9 21 Nordeste 39 Este 0 -- -- 98
2020-07-07 02:00:00 14.1 17 Nordeste 35 Nordeste 0 -- -- 98
2020-07-07 01:00:00 14.2 17 Nordeste 33 Este 0 -- -- 99
2020-07-07 00:00:00 14.3 15 Este 35 Este 0 -- -- 99